Hauptseite
METAR-TAF:

METAR-TAF

Flughäfen :

Sønderborg, Dänemark

Flughafen Sønderborg

Breite: 54-58N, Länge: 009-47E, Höhe: 7 m

Beobachtung

Neuester Wetterbericht von vor 20 Minuten, um 00:20 UTC
Wind 7 kt aus Süd/Südwest, variierte zwischen Süd/Südost und Südwest
Temperatur 6°C
Luftfeuchtigkeit 100%
Luftdruck 1010 hPa
Sichtweite 10 km oder mehr

METAR: EKSB 280020Z AUTO 20007KT 160V230 9999NDV OVC006/// 06/06 Q1010

Zeit: 02:40 (00:40 UTC)

Prognose

Neuester Wetterbericht von vor 6 Stunden und 47 Minuten, um 17:53 UTC
Gültige Prognose vom 27 um 18 UTC bis 27 um 22 UTC
Wind 8 kt aus Süd/Südwest
Sichtweite: 9000 m
Durchbrochene Bewölkung in der Höhe von 1500 ft
Leichtregen, Sprühregen
Zeitweise
vom 27 um 18 UTC bis 27 um 22 UTC
Durchbrochene Bewölkung in der Höhe von 800 ft
Regen, Sprühregen

TAF: EKSB 271753Z 2718/2722 20008KT 9000 -RADZ BKN015 TEMPO 2718/2722 RADZ BKN008

Wetterbeobachtungen und Prognosen von mehr als 4000 Flughäfen (METAR und TAF Bericht).

Die verfügbaren Stationen werden durch gelbe und rote Markierungen auf der Karte dargestellt.

Führen Sie die Maus auf sie, um den Namen der Station zu sehen.

Darauf klicken, um die Beobachtung von Wetterbeobachtungen und Prognosen zu sehen.

Um die Karte zu ändern : klicken Sie auf den grünen Tasten mit einem schwarzen Kreuz Zum Vergrößern, auf den grünen Button mit einem Gedankenstrich zu verkleinern, oder auf die grünen Pfeile für benachbarte Karten.


METAR-TAF: